createdAt,value
2022-10-18T10:28:48.870Z,19.16
2022-10-18T10:32:03.209Z,19.35
2022-10-18T10:35:33.914Z,19.15
2022-10-18T10:38:42.967Z,19.21
2022-10-18T10:41:57.618Z,19.26
2022-10-18T10:45:01.656Z,19.16
2022-10-18T10:48:14.442Z,19.11
2022-10-18T10:51:28.927Z,19.25
2022-10-18T10:54:36.098Z,19.21
2022-10-18T10:57:38.744Z,19.27
2022-10-18T11:00:44.954Z,19.40
2022-10-18T11:03:48.963Z,19.42
2022-10-18T11:07:02.982Z,19.63
2022-10-18T11:10:10.385Z,19.44
2022-10-18T11:13:16.239Z,19.41
2022-10-18T11:16:29.347Z,19.68
2022-10-18T11:19:49.270Z,19.84
2022-10-18T11:22:56.610Z,19.98
2022-10-18T11:26:24.510Z,19.96
2022-10-18T11:29:39.349Z,19.95
2022-10-18T11:33:03.066Z,20.02
2022-10-18T11:39:43.063Z,20.41
2022-10-18T11:43:24.771Z,20.19
2022-10-18T11:46:59.925Z,20.14
2022-10-18T11:53:57.224Z,19.98
2022-10-18T11:57:17.877Z,19.86
2022-10-18T12:00:44.928Z,20.05
2022-10-18T12:03:55.637Z,20.07
2022-10-18T12:06:57.511Z,20.10
2022-10-18T12:10:01.280Z,20.01
2022-10-18T12:13:07.323Z,19.95
2022-10-18T12:16:10.525Z,19.98
2022-10-18T12:19:23.567Z,20.09
2022-10-18T12:22:43.028Z,20.15
2022-10-18T12:25:53.660Z,20.26
2022-10-18T12:29:23.524Z,20.26
2022-10-18T12:32:30.280Z,20.24
2022-10-18T12:35:40.662Z,20.08
2022-10-18T12:38:45.392Z,20.13
2022-10-18T12:41:48.602Z,20.15
2022-10-18T12:45:01.296Z,20.00
2022-10-18T12:48:07.758Z,20.09
2022-10-18T12:51:22.385Z,19.95
2022-10-18T12:55:00.213Z,20.07
2022-10-18T12:58:04.428Z,20.18
2022-10-18T13:01:07.305Z,20.10
2022-10-18T13:04:29.180Z,19.95
2022-10-18T13:07:30.871Z,20.07
2022-10-18T13:10:36.166Z,20.07
2022-10-18T13:14:09.258Z,20.16
2022-10-18T13:17:33.431Z,20.14
2022-10-18T13:20:47.066Z,20.27
2022-10-18T13:24:26.256Z,20.10
2022-10-18T13:27:52.699Z,20.17
2022-10-18T13:31:17.461Z,20.48
2022-10-18T13:34:25.266Z,20.94
2022-10-18T13:37:29.256Z,21.08
2022-10-18T13:40:31.022Z,22.29
2022-10-18T13:43:57.330Z,25.69
2022-10-18T13:46:58.822Z,28.49
2022-10-18T13:53:44.511Z,30.95
2022-10-18T13:57:01.191Z,32.07
2022-10-18T14:00:26.965Z,32.25
2022-10-18T14:03:57.378Z,31.07
2022-10-18T14:07:03.738Z,31.43
2022-10-18T14:10:15.749Z,32.96
2022-10-18T14:13:23.654Z,31.84
2022-10-18T14:16:43.556Z,31.89
2022-10-18T14:19:52.372Z,31.51
2022-10-18T14:22:57.694Z,30.60
2022-10-18T14:26:19.348Z,27.80
2022-10-18T14:29:21.001Z,25.06
2022-10-18T14:32:28.391Z,23.12
2022-10-18T14:35:33.597Z,21.79
2022-10-18T14:38:38.620Z,21.26
2022-10-18T14:41:52.631Z,20.79
2022-10-18T14:44:56.527Z,20.60
2022-10-18T14:48:14.971Z,20.24
2022-10-18T14:51:17.070Z,19.88
2022-10-18T14:54:31.539Z,19.76
2022-10-18T14:57:37.575Z,19.64
2022-10-18T15:00:41.842Z,19.41
2022-10-18T15:03:46.485Z,19.23
2022-10-18T15:06:49.077Z,19.08
2022-10-18T15:09:51.413Z,18.97
2022-10-18T15:13:10.436Z,18.60
2022-10-18T15:16:18.912Z,18.52
2022-10-18T15:19:39.500Z,18.20
2022-10-18T15:22:41.211Z,18.07
2022-10-18T15:25:43.234Z,17.80
2022-10-18T15:28:54.282Z,17.35
2022-10-18T15:31:56.350Z,17.16
2022-10-18T15:35:14.507Z,16.84
2022-10-18T15:38:17.253Z,16.56
2022-10-18T15:41:42.775Z,16.30
2022-10-18T15:44:51.058Z,16.87
2022-10-18T15:47:59.504Z,17.00
2022-10-18T15:51:07.057Z,16.59
2022-10-18T15:54:19.860Z,16.10
2022-10-18T15:57:22.940Z,15.74
2022-10-18T16:00:24.588Z,15.75
2022-10-18T16:03:27.703Z,15.66
2022-10-18T16:06:29.451Z,14.92
2022-10-18T16:09:31.125Z,14.94
2022-10-18T16:12:32.817Z,14.82
2022-10-18T16:15:34.368Z,14.87
2022-10-18T16:18:36.240Z,14.73
2022-10-18T16:21:38.733Z,14.83
2022-10-18T16:24:40.791Z,14.40
2022-10-18T16:27:42.460Z,14.50
2022-10-18T16:30:52.054Z,14.39
2022-10-18T16:33:55.282Z,14.55
2022-10-18T16:36:56.832Z,14.45
2022-10-18T16:39:58.588Z,14.34
2022-10-18T16:43:00.365Z,14.36
2022-10-18T16:46:02.798Z,14.08
2022-10-18T16:49:05.035Z,13.95
2022-10-18T16:52:06.794Z,13.95
2022-10-18T16:55:15.794Z,13.99
2022-10-18T16:58:18.173Z,13.84
2022-10-18T17:01:22.232Z,13.76
2022-10-18T17:04:24.409Z,13.59
2022-10-18T17:07:28.376Z,13.33
2022-10-18T17:10:30.161Z,12.98
2022-10-18T17:13:31.728Z,13.13
2022-10-18T17:16:36.772Z,12.88
2022-10-18T17:19:38.742Z,13.02
2022-10-18T17:22:40.340Z,12.99
2022-10-18T17:25:57.896Z,12.91
2022-10-18T17:29:10.353Z,12.59
2022-10-18T17:32:12.668Z,12.67
2022-10-18T17:35:14.697Z,12.50
2022-10-18T17:38:16.928Z,12.09
2022-10-18T17:41:19.937Z,12.09
2022-10-18T17:44:27.277Z,12.14
2022-10-18T17:47:29.753Z,12.14
2022-10-18T17:50:32.285Z,12.28
2022-10-18T17:53:37.123Z,11.89
2022-10-18T17:56:42.745Z,12.18
2022-10-18T17:59:48.102Z,12.20
2022-10-18T18:02:50.572Z,12.05
2022-10-18T18:05:53.001Z,12.17
2022-10-18T18:08:54.912Z,12.02
2022-10-18T18:11:58.311Z,12.05
2022-10-18T18:15:00.668Z,11.83
2022-10-18T18:18:03.195Z,11.54
2022-10-18T18:21:05.973Z,11.41
2022-10-18T18:24:10.614Z,11.41
2022-10-18T18:27:12.523Z,11.31
2022-10-18T18:30:20.704Z,11.36
2022-10-18T18:33:23.070Z,11.23
2022-10-18T18:36:29.824Z,11.37
2022-10-18T18:39:35.659Z,11.31
2022-10-18T18:42:37.796Z,11.43
2022-10-18T18:45:40.010Z,11.00
2022-10-18T18:48:42.729Z,10.68
2022-10-18T18:51:45.452Z,10.82
2022-10-18T18:54:48.119Z,10.53
2022-10-18T18:57:50.495Z,10.51
2022-10-18T19:00:52.927Z,10.33
2022-10-18T19:03:56.402Z,10.39
2022-10-18T19:06:58.606Z,10.38
2022-10-18T19:10:01.076Z,10.27
2022-10-18T19:13:03.388Z,10.28
2022-10-18T19:16:22.496Z,10.28
2022-10-18T19:19:27.266Z,10.22
2022-10-18T19:22:29.675Z,10.09
2022-10-18T19:25:32.219Z,10.09
2022-10-18T19:28:35.209Z,10.15
2022-10-18T19:31:38.647Z,9.85
2022-10-18T19:34:41.703Z,9.96
2022-10-18T19:37:43.726Z,9.56
2022-10-18T19:40:49.221Z,9.69
2022-10-18T19:43:53.983Z,9.69
2022-10-18T19:46:59.424Z,9.73
2022-10-18T19:50:01.934Z,9.80
2022-10-18T19:53:04.231Z,10.08
2022-10-18T19:56:08.154Z,10.00
2022-10-18T19:59:11.908Z,9.85
2022-10-18T20:02:15.670Z,9.69
2022-10-18T20:05:17.349Z,9.58
2022-10-18T20:08:20.115Z,9.78
2022-10-18T20:11:24.411Z,9.51
2022-10-18T20:14:26.025Z,9.42
2022-10-18T20:17:27.897Z,9.74
2022-10-18T20:20:29.914Z,9.52
2022-10-18T20:23:33.131Z,9.82
2022-10-18T20:26:36.140Z,9.53
2022-10-18T20:29:37.766Z,9.51
2022-10-18T20:32:39.379Z,9.47
2022-10-18T20:35:41.194Z,9.43
2022-10-18T20:38:45.387Z,9.31
2022-10-18T20:41:47.255Z,9.43
2022-10-18T20:44:48.805Z,9.25
2022-10-18T20:47:50.357Z,9.12
2022-10-18T20:50:52.516Z,9.18
2022-10-18T20:53:54.558Z,8.82
2022-10-18T20:56:56.188Z,8.76
2022-10-18T20:59:58.353Z,8.72
2022-10-18T21:02:59.947Z,8.68
2022-10-18T21:06:02.373Z,8.74
2022-10-18T21:09:10.614Z,8.55
2022-10-18T21:12:12.197Z,8.50
2022-10-18T21:15:14.473Z,8.43
2022-10-18T21:18:16.030Z,8.69
2022-10-18T21:21:23.911Z,8.61
2022-10-18T21:24:26.500Z,8.39
2022-10-18T21:27:28.082Z,8.30
2022-10-18T21:30:29.784Z,8.43
2022-10-18T21:33:31.376Z,8.64
2022-10-18T21:36:35.356Z,8.74
2022-10-18T21:39:36.929Z,8.52
2022-10-18T21:42:38.851Z,8.52
2022-10-18T21:45:40.489Z,8.43
2022-10-18T21:48:47.252Z,8.63
2022-10-18T21:51:49.269Z,8.61
2022-10-18T21:54:51.016Z,8.53
2022-10-18T21:57:52.842Z,7.99
2022-10-18T22:00:54.451Z,7.63
2022-10-18T22:03:57.542Z,7.82
2022-10-18T22:06:59.551Z,8.11
2022-10-18T22:10:01.166Z,8.09
2022-10-18T22:13:02.778Z,7.92
2022-10-18T22:16:06.571Z,7.91
2022-10-18T22:19:08.299Z,8.09
2022-10-18T22:22:10.396Z,8.35
2022-10-18T22:25:11.999Z,8.47
2022-10-18T22:28:14.248Z,8.26
2022-10-18T22:31:21.891Z,8.18
2022-10-18T22:34:28.856Z,8.45
2022-10-18T22:37:30.651Z,8.23
2022-10-18T22:40:32.644Z,8.29
2022-10-18T22:43:34.994Z,8.29
2022-10-18T22:46:36.633Z,8.34
2022-10-18T22:49:38.554Z,8.44
2022-10-18T22:52:40.303Z,8.37
2022-10-18T22:55:42.201Z,8.35
2022-10-18T22:58:43.916Z,8.40
2022-10-18T23:01:45.708Z,8.26
2022-10-18T23:04:47.431Z,7.98
2022-10-18T23:07:49.612Z,7.96
2022-10-18T23:10:56.996Z,8.17
2022-10-18T23:13:58.711Z,8.27
2022-10-18T23:17:00.284Z,7.96
2022-10-18T23:20:02.233Z,8.05
2022-10-18T23:23:03.832Z,7.98
2022-10-18T23:26:08.331Z,8.11
2022-10-18T23:29:10.280Z,8.07
2022-10-18T23:32:11.915Z,7.85
2022-10-18T23:35:13.662Z,7.88
2022-10-18T23:38:15.719Z,7.98
2022-10-18T23:41:18.283Z,7.91
2022-10-18T23:44:19.857Z,7.86
2022-10-18T23:47:21.489Z,7.89
2022-10-18T23:50:23.323Z,7.83
2022-10-18T23:53:25.041Z,8.00
2022-10-18T23:56:26.610Z,7.91
2022-10-18T23:59:28.439Z,8.17
